createdAt,value
2019-01-12T00:02:01.589Z,16.93
2019-01-12T00:04:49.587Z,18.50
2019-01-12T00:07:37.588Z,15.80
2019-01-12T00:10:25.632Z,16.07
2019-01-12T00:13:13.549Z,14.70
2019-01-12T00:16:01.674Z,17.23
2019-01-12T00:18:49.725Z,16.53
2019-01-12T00:21:37.690Z,16.23
2019-01-12T00:24:31.585Z,15.17
2019-01-12T00:27:15.074Z,16.87
2019-01-12T00:30:02.785Z,14.97
2019-01-12T00:32:50.705Z,12.50
2019-01-12T00:35:38.741Z,15.23
2019-01-12T00:38:26.954Z,14.53
2019-01-12T00:41:14.516Z,13.73
2019-01-12T00:44:02.045Z,14.33
2019-01-12T00:46:49.989Z,13.90
2019-01-12T00:49:37.965Z,15.90
2019-01-12T00:52:26.001Z,14.17
2019-01-12T00:55:13.945Z,14.40
2019-01-12T00:58:02.120Z,13.53
2019-01-12T01:00:50.264Z,17.10
2019-01-12T01:03:38.152Z,16.70
2019-01-12T01:06:25.898Z,16.40
2019-01-12T01:09:13.449Z,16.50
2019-01-12T01:12:01.379Z,15.47
2019-01-12T01:14:49.259Z,16.43
2019-01-12T01:17:37.181Z,15.53
2019-01-12T01:20:24.803Z,14.70
2019-01-12T01:23:12.963Z,16.47
2019-01-12T01:26:00.875Z,16.20
2019-01-12T01:28:48.613Z,16.63
2019-01-12T01:31:36.803Z,15.47
2019-01-12T01:34:25.100Z,16.63
2019-01-12T01:37:12.655Z,16.37
2019-01-12T01:40:00.880Z,14.87
2019-01-12T01:42:49.118Z,15.77
2019-01-12T01:45:37.178Z,16.47
2019-01-12T01:48:25.141Z,18.20
2019-01-12T01:51:12.741Z,16.43
2019-01-12T01:54:00.682Z,18.93
2019-01-12T01:56:48.695Z,13.90
2019-01-12T01:59:36.797Z,14.67
2019-01-12T02:02:24.680Z,15.37
2019-01-12T02:05:12.848Z,14.23
2019-01-12T02:08:00.829Z,15.23
2019-01-12T02:10:48.718Z,14.40
2019-01-12T02:13:36.347Z,13.93
2019-01-12T02:16:23.991Z,14.20
2019-01-12T02:19:11.523Z,15.93
2019-01-12T02:21:59.714Z,13.77
2019-01-12T02:24:47.579Z,15.77
2019-01-12T02:27:35.311Z,15.10
2019-01-12T02:30:24.568Z,13.63
2019-01-12T02:33:12.665Z,14.17
2019-01-12T02:36:00.583Z,13.60
2019-01-12T02:38:48.497Z,13.33
2019-01-12T02:41:36.607Z,14.27
2019-01-12T02:44:24.388Z,14.30
2019-01-12T02:47:12.395Z,15.10
2019-01-12T02:50:00.768Z,15.33
2019-01-12T02:52:48.806Z,13.57
2019-01-12T02:55:36.635Z,13.20
2019-01-12T02:58:24.457Z,12.27
2019-01-12T03:01:12.353Z,11.63
2019-01-12T03:04:00.553Z,11.93
2019-01-12T03:06:48.028Z,12.47
2019-01-12T03:09:35.846Z,12.67
2019-01-12T03:12:23.528Z,12.10
2019-01-12T03:15:14.269Z,13.30
2019-01-12T03:18:02.066Z,11.87
2019-01-12T03:20:49.990Z,11.53
2019-01-12T03:23:37.974Z,10.57
2019-01-12T03:26:26.024Z,11.90
2019-01-12T03:29:13.818Z,11.53
2019-01-12T03:32:01.854Z,11.83
2019-01-12T03:34:49.957Z,11.53
2019-01-12T03:37:38.141Z,12.67
2019-01-12T03:40:26.196Z,12.00
2019-01-12T03:43:14.268Z,10.60
2019-01-12T03:46:01.794Z,10.77
2019-01-12T03:48:49.673Z,10.53
2019-01-12T03:51:37.540Z,11.80
2019-01-12T03:54:25.368Z,12.00
2019-01-12T03:57:12.935Z,11.00
2019-01-12T04:00:00.713Z,10.50
2019-01-12T04:02:49.115Z,9.40
2019-01-12T04:05:37.187Z,10.97
2019-01-12T04:08:25.316Z,9.67
2019-01-12T04:11:13.151Z,9.23
2019-01-12T04:14:01.086Z,10.50
2019-01-12T04:16:49.297Z,11.07
2019-01-12T04:19:36.902Z,9.97
2019-01-12T04:22:25.104Z,10.63
2019-01-12T04:25:12.897Z,10.60
2019-01-12T04:28:00.534Z,10.10
2019-01-12T04:30:48.326Z,9.80
2019-01-12T04:33:36.262Z,10.40
2019-01-12T04:36:24.223Z,11.50
2019-01-12T04:39:11.935Z,10.53
2019-01-12T04:41:59.858Z,10.43
2019-01-12T04:44:48.006Z,11.53
2019-01-12T04:47:35.851Z,10.63
2019-01-12T04:50:23.880Z,9.97
2019-01-12T04:53:11.934Z,11.07
2019-01-12T04:56:00.227Z,11.20
2019-01-12T04:58:48.260Z,10.43
2019-01-12T05:01:36.414Z,11.23
2019-01-12T05:04:24.259Z,10.73
2019-01-12T05:07:12.659Z,9.00
2019-01-12T05:10:00.381Z,9.40
2019-01-12T05:12:48.223Z,10.67
2019-01-12T05:15:35.776Z,9.00
2019-01-12T05:18:23.871Z,10.50
2019-01-12T05:21:11.439Z,10.57
2019-01-12T05:23:59.435Z,10.37
2019-01-12T05:26:47.169Z,9.20
2019-01-12T05:29:35.311Z,10.33
2019-01-12T05:32:23.042Z,9.43
2019-01-12T05:35:10.810Z,10.83
2019-01-12T05:37:58.794Z,10.80
2019-01-12T05:40:46.829Z,9.80
2019-01-12T05:43:34.723Z,10.03
2019-01-12T05:46:22.376Z,9.63
2019-01-12T05:49:09.931Z,10.57
2019-01-12T05:51:57.847Z,9.73
2019-01-12T05:54:45.727Z,10.43
2019-01-12T05:57:33.870Z,10.40
2019-01-12T06:00:22.876Z,10.83
2019-01-12T06:03:10.859Z,10.03
2019-01-12T06:05:58.732Z,9.63
2019-01-12T06:08:46.909Z,10.83
2019-01-12T06:11:35.105Z,10.33
2019-01-12T06:14:23.406Z,10.60
2019-01-12T06:17:11.508Z,9.63
2019-01-12T06:19:59.747Z,9.33
2019-01-12T06:22:47.923Z,10.07
2019-01-12T06:25:35.983Z,10.13
2019-01-12T06:28:23.782Z,11.07
2019-01-12T06:31:11.638Z,11.50
2019-01-12T06:33:59.780Z,11.70
2019-01-12T06:36:47.708Z,11.47
2019-01-12T06:39:35.541Z,12.93
2019-01-12T06:42:23.081Z,13.30
2019-01-12T06:45:12.152Z,12.40
2019-01-12T06:48:00.315Z,12.97
2019-01-12T06:50:48.598Z,14.13
2019-01-12T06:53:36.384Z,12.77
2019-01-12T06:56:23.816Z,13.13
2019-01-12T06:59:12.942Z,14.17
2019-01-12T07:02:01.193Z,13.13
2019-01-12T07:04:49.056Z,13.63
2019-01-12T07:07:36.980Z,13.73
2019-01-12T07:10:24.756Z,13.20
2019-01-12T07:13:12.486Z,13.03
2019-01-12T07:16:00.548Z,12.73
2019-01-12T07:18:48.421Z,12.00
2019-01-12T07:21:36.725Z,13.77
2019-01-12T07:24:25.187Z,13.90
2019-01-12T07:27:13.164Z,14.00
2019-01-12T07:30:01.206Z,16.13
2019-01-12T07:32:49.217Z,14.93
2019-01-12T07:35:36.946Z,13.17
2019-01-12T07:38:24.826Z,13.40
2019-01-12T07:41:12.745Z,13.70
2019-01-12T07:44:00.704Z,13.70
2019-01-12T07:46:48.836Z,15.37
2019-01-12T07:49:37.076Z,14.13
2019-01-12T07:52:24.703Z,13.40
2019-01-12T07:55:12.883Z,13.77
2019-01-12T07:58:01.205Z,13.20
2019-01-12T08:00:49.235Z,13.33
2019-01-12T08:03:37.096Z,11.57
2019-01-12T08:06:24.627Z,12.50
2019-01-12T08:09:12.436Z,13.83
2019-01-12T08:12:00.439Z,13.60
2019-01-12T08:14:48.597Z,11.97
2019-01-12T08:17:36.617Z,13.33
2019-01-12T08:20:25.067Z,13.20
2019-01-12T08:23:12.936Z,11.90
2019-01-12T08:26:01.109Z,12.43
2019-01-12T08:28:48.715Z,12.60
2019-01-12T08:31:36.762Z,11.07
2019-01-12T08:34:24.590Z,11.30
2019-01-12T08:37:12.806Z,9.37
2019-01-12T08:40:00.326Z,10.10
2019-01-12T08:42:48.559Z,10.13
2019-01-12T08:45:36.483Z,10.70
2019-01-12T08:48:24.281Z,11.27
2019-01-12T08:51:12.382Z,10.40
2019-01-12T08:54:00.770Z,10.77
2019-01-12T08:56:48.938Z,12.70
2019-01-12T08:59:36.844Z,12.93
2019-01-12T09:02:25.002Z,12.53
2019-01-12T09:05:12.881Z,12.70
2019-01-12T09:08:00.816Z,12.70
2019-01-12T09:10:48.438Z,13.27
2019-01-12T09:13:36.288Z,13.27
2019-01-12T09:16:24.601Z,12.90
2019-01-12T09:19:12.607Z,11.87
2019-01-12T09:22:00.588Z,13.77
2019-01-12T09:24:48.856Z,11.90
2019-01-12T09:27:36.501Z,12.53
2019-01-12T09:30:24.646Z,12.27
2019-01-12T09:33:12.895Z,13.97
2019-01-12T09:36:01.191Z,12.17
2019-01-12T09:38:49.374Z,10.53
2019-01-12T09:41:37.399Z,12.53
2019-01-12T09:44:25.512Z,11.03
2019-01-12T09:47:13.220Z,11.37
2019-01-12T09:50:01.520Z,11.33
2019-01-12T09:52:51.055Z,12.30
2019-01-12T09:55:39.186Z,10.23
2019-01-12T09:58:26.986Z,11.63
2019-01-12T10:01:15.030Z,13.03
2019-01-12T10:04:03.419Z,11.53
2019-01-12T10:07:04.126Z,13.30
2019-01-12T10:09:52.278Z,10.97
2019-01-12T10:12:39.899Z,11.57
2019-01-12T10:15:28.097Z,10.40
2019-01-12T10:18:16.376Z,11.83
2019-01-12T10:21:04.174Z,11.77
2019-01-12T10:23:52.186Z,11.17
2019-01-12T10:26:40.164Z,11.03
2019-01-12T10:29:28.371Z,11.10
2019-01-12T10:32:16.497Z,10.93
2019-01-12T10:35:04.837Z,10.90
2019-01-12T10:37:52.888Z,11.00
2019-01-12T10:40:40.864Z,11.33
2019-01-12T10:43:28.816Z,11.00
2019-01-12T10:46:16.728Z,10.33
2019-01-12T10:49:05.396Z,11.00
2019-01-12T10:51:53.528Z,10.00
2019-01-12T10:54:41.350Z,10.00
2019-01-12T10:57:29.276Z,10.80
2019-01-12T11:00:23.653Z,11.00
2019-01-12T11:03:11.723Z,10.70
2019-01-12T11:05:59.708Z,10.83
2019-01-12T11:08:47.900Z,11.33
2019-01-12T11:11:35.763Z,10.50
2019-01-12T11:14:23.945Z,10.30
2019-01-12T11:17:12.008Z,13.57
2019-01-12T11:20:00.227Z,12.93
2019-01-12T11:22:48.359Z,12.67
2019-01-12T11:25:42.576Z,12.00
2019-01-12T11:28:26.105Z,11.60
2019-01-12T11:31:19.743Z,12.47
2019-01-12T11:34:03.852Z,12.00
2019-01-12T11:36:51.765Z,11.70
2019-01-12T11:39:39.740Z,12.00
2019-01-12T11:42:27.571Z,12.87
2019-01-12T11:45:15.847Z,13.00
2019-01-12T11:48:03.977Z,11.87
2019-01-12T11:50:52.216Z,12.77
2019-01-12T11:53:40.868Z,12.57
2019-01-12T11:56:28.987Z,12.33
2019-01-12T11:59:16.994Z,12.77
2019-01-12T12:02:05.310Z,12.57
2019-01-12T12:04:53.427Z,12.47
2019-01-12T12:07:41.074Z,12.73
2019-01-12T12:10:29.526Z,13.03
2019-01-12T12:13:17.539Z,13.20
2019-01-12T12:16:05.516Z,12.03
2019-01-12T12:18:53.588Z,11.43
2019-01-12T12:21:41.359Z,11.30
2019-01-12T12:24:29.442Z,11.87
2019-01-12T12:27:17.444Z,11.43
2019-01-12T12:30:07.595Z,11.33
2019-01-12T12:32:55.450Z,12.63
2019-01-12T12:35:43.489Z,10.27
2019-01-12T12:38:31.347Z,10.63
2019-01-12T12:41:19.377Z,10.30
2019-01-12T12:44:07.418Z,10.63
2019-01-12T12:46:55.239Z,9.90
2019-01-12T12:49:43.021Z,9.83
2019-01-12T12:52:31.057Z,9.83
2019-01-12T12:55:19.417Z,10.23
2019-01-12T12:58:08.474Z,10.27
2019-01-12T13:00:56.604Z,10.57
2019-01-12T13:03:44.977Z,11.43
2019-01-12T13:06:33.219Z,12.00
2019-01-12T13:09:21.147Z,11.70
2019-01-12T13:12:09.080Z,11.93
2019-01-12T13:14:57.283Z,11.37
2019-01-12T13:17:45.558Z,11.93
2019-01-12T13:20:33.363Z,11.97
2019-01-12T13:23:21.729Z,11.67
2019-01-12T13:26:09.794Z,12.47
2019-01-12T13:28:57.427Z,11.37
2019-01-12T13:31:45.278Z,11.70
2019-01-12T13:34:32.916Z,10.50
2019-01-12T13:37:21.244Z,8.70
2019-01-12T13:40:10.706Z,8.67
2019-01-12T13:42:58.663Z,7.77
2019-01-12T13:45:46.201Z,8.80
2019-01-12T13:48:33.772Z,7.30
2019-01-12T13:51:21.801Z,7.43
2019-01-12T13:54:09.903Z,6.40
2019-01-12T13:56:58.023Z,6.80
2019-01-12T13:59:46.198Z,6.50
2019-01-12T14:02:34.358Z,7.33
2019-01-12T14:05:22.708Z,6.53
2019-01-12T14:08:10.603Z,7.20
2019-01-12T14:10:58.750Z,7.80
2019-01-12T14:13:47.092Z,7.17
2019-01-12T14:16:35.016Z,8.50
2019-01-12T14:19:22.937Z,8.13
2019-01-12T14:22:11.215Z,7.63
2019-01-12T14:24:59.462Z,8.10
2019-01-12T14:27:54.414Z,8.17
2019-01-12T14:30:37.345Z,8.47
2019-01-12T14:33:25.360Z,7.60
2019-01-12T14:36:13.330Z,8.63
2019-01-12T14:39:01.562Z,9.60
2019-01-12T14:41:49.706Z,10.90
2019-01-12T14:44:37.595Z,8.70
2019-01-12T14:47:25.510Z,9.13
2019-01-12T14:50:13.694Z,9.90
2019-01-12T14:53:01.203Z,8.53
2019-01-12T14:55:49.327Z,8.57
2019-01-12T14:58:37.666Z,8.97
2019-01-12T15:01:25.703Z,8.10
2019-01-12T15:04:13.746Z,8.90
2019-01-12T15:07:01.939Z,7.43
2019-01-12T15:09:49.814Z,7.70
2019-01-12T15:12:38.248Z,7.40
2019-01-12T15:15:26.301Z,7.13
2019-01-12T15:18:13.864Z,6.47
2019-01-12T15:21:01.750Z,7.23
2019-01-12T15:23:49.793Z,6.77
2019-01-12T15:26:37.706Z,6.70
2019-01-12T15:29:25.845Z,5.40
2019-01-12T15:32:14.080Z,5.20
2019-01-12T15:35:02.064Z,4.67
2019-01-12T15:37:50.139Z,4.20
2019-01-12T15:40:37.924Z,3.00
2019-01-12T15:43:25.829Z,2.73
2019-01-12T15:46:14.182Z,2.80
2019-01-12T15:49:01.640Z,2.80
2019-01-12T15:51:49.475Z,2.73
2019-01-12T15:54:37.688Z,3.13
2019-01-12T15:57:25.760Z,2.60
2019-01-12T16:00:19.385Z,2.50
2019-01-12T16:03:07.465Z,3.20
2019-01-12T16:05:55.018Z,4.60
2019-01-12T16:08:42.988Z,4.93
2019-01-12T16:11:31.193Z,5.47
2019-01-12T16:14:19.134Z,5.67
2019-01-12T16:17:06.939Z,5.23
2019-01-12T16:19:54.850Z,5.67
2019-01-12T16:22:42.764Z,6.40
2019-01-12T16:25:31.049Z,6.53
2019-01-12T16:28:23.173Z,6.40
2019-01-12T16:31:08.894Z,5.37
2019-01-12T16:33:56.602Z,4.70
2019-01-12T16:36:44.608Z,5.27
2019-01-12T16:39:32.489Z,4.47
2019-01-12T16:42:21.101Z,4.47
2019-01-12T16:45:08.839Z,2.67
2019-01-12T16:47:57.267Z,3.20
2019-01-12T16:50:45.349Z,2.93
2019-01-12T16:53:33.238Z,2.87
2019-01-12T16:56:23.624Z,2.43
2019-01-12T16:59:11.691Z,2.60
2019-01-12T17:02:00.251Z,2.27
2019-01-12T17:04:48.556Z,3.63
2019-01-12T17:07:36.777Z,2.57
2019-01-12T17:10:24.615Z,2.60
2019-01-12T17:13:12.639Z,2.63
2019-01-12T17:16:00.567Z,2.70
2019-01-12T17:18:48.917Z,3.70
2019-01-12T17:21:37.270Z,3.43
2019-01-12T17:24:25.309Z,3.90
2019-01-12T17:27:13.306Z,3.50
2019-01-12T17:30:01.467Z,3.60
2019-01-12T17:32:49.609Z,3.80
2019-01-12T17:35:37.447Z,3.60
2019-01-12T17:38:25.330Z,3.13
2019-01-12T17:41:13.472Z,3.47
2019-01-12T17:44:01.499Z,2.73
2019-01-12T17:46:49.857Z,3.20
2019-01-12T17:49:38.010Z,3.20
2019-01-12T17:52:26.060Z,3.00
2019-01-12T17:55:16.199Z,2.53
2019-01-12T17:58:04.229Z,2.40
2019-01-12T18:00:53.137Z,3.00
2019-01-12T18:03:41.516Z,2.80
2019-01-12T18:06:42.371Z,2.70
2019-01-12T18:09:30.278Z,2.90
2019-01-12T18:12:18.768Z,2.80
2019-01-12T18:15:09.222Z,3.13
2019-01-12T18:17:57.045Z,2.30
2019-01-12T18:20:44.938Z,2.43
2019-01-12T18:23:33.059Z,4.00
2019-01-12T18:26:21.459Z,3.40
2019-01-12T18:29:09.421Z,2.57
2019-01-12T18:31:57.046Z,2.90
2019-01-12T18:34:45.382Z,3.13
2019-01-12T18:37:36.566Z,3.10
2019-01-12T18:40:25.075Z,2.93
2019-01-12T18:43:12.942Z,3.33
2019-01-12T18:46:00.940Z,3.40
2019-01-12T18:48:48.904Z,4.13
2019-01-12T18:51:36.697Z,3.30
2019-01-12T18:54:24.816Z,2.70
2019-01-12T18:57:12.653Z,10.33
2019-01-12T19:00:00.846Z,2.63
2019-01-12T19:02:50.177Z,3.50
2019-01-12T19:05:38.330Z,3.40
2019-01-12T19:08:26.581Z,2.83
2019-01-12T19:11:14.482Z,2.80
2019-01-12T19:14:02.420Z,2.70
2019-01-12T19:16:50.636Z,3.27
2019-01-12T19:19:38.160Z,3.57
2019-01-12T19:22:26.316Z,2.73
2019-01-12T19:25:14.504Z,3.10
2019-01-12T19:28:02.364Z,3.40
2019-01-12T19:30:50.248Z,2.93
2019-01-12T19:33:38.058Z,2.80
2019-01-12T19:36:25.944Z,3.67
2019-01-12T19:39:14.071Z,2.97
2019-01-12T19:42:01.930Z,3.30
2019-01-12T19:44:50.882Z,3.60
2019-01-12T19:47:38.599Z,3.60
2019-01-12T19:50:27.262Z,3.50
2019-01-12T19:53:14.966Z,3.90
2019-01-12T19:56:03.236Z,2.73
2019-01-12T19:58:51.386Z,2.83
2019-01-12T20:01:39.631Z,2.60
2019-01-12T20:04:27.450Z,2.93
2019-01-12T20:07:15.663Z,2.73
2019-01-12T20:10:03.513Z,2.80
2019-01-12T20:12:52.083Z,2.70
2019-01-12T20:15:40.263Z,2.93
2019-01-12T20:18:28.572Z,3.13
2019-01-12T20:21:16.877Z,2.47
2019-01-12T20:24:04.771Z,2.90
2019-01-12T20:26:52.600Z,3.07
2019-01-12T20:29:40.468Z,3.10
2019-01-12T20:33:11.031Z,3.47
2019-01-12T20:36:55.462Z,2.73
2019-01-12T20:40:24.571Z,2.67
2019-01-12T20:43:57.000Z,2.90
2019-01-12T20:47:17.139Z,2.43
2019-01-12T20:50:14.803Z,2.50
2019-01-12T20:53:34.081Z,2.57
2019-01-12T20:56:50.691Z,2.47
2019-01-12T21:00:05.444Z,2.40
2019-01-12T21:03:49.147Z,2.70
2019-01-12T21:07:07.080Z,2.60
2019-01-12T21:10:14.233Z,2.23
2019-01-12T21:13:57.807Z,2.63
2019-01-12T21:17:11.859Z,2.37
2019-01-12T21:19:59.757Z,2.23
2019-01-12T21:22:47.844Z,2.20
2019-01-12T21:25:35.472Z,2.60
2019-01-12T21:28:23.229Z,2.00
2019-01-12T21:31:10.895Z,1.93
2019-01-12T21:33:58.261Z,1.90
2019-01-12T21:36:46.234Z,1.70
2019-01-12T21:39:34.138Z,1.80
2019-01-12T21:42:21.659Z,1.70
2019-01-12T21:45:11.683Z,2.20
2019-01-12T21:47:59.721Z,2.00
2019-01-12T21:50:47.628Z,1.70
2019-01-12T21:53:36.780Z,1.83
2019-01-12T21:56:24.653Z,1.70
2019-01-12T21:59:12.610Z,1.77
2019-01-12T22:02:00.833Z,1.87
2019-01-12T22:04:49.017Z,1.57
2019-01-12T22:07:37.186Z,1.60
2019-01-12T22:10:25.080Z,1.40
2019-01-12T22:13:13.040Z,1.70
2019-01-12T22:16:01.179Z,1.60
2019-01-12T22:18:48.784Z,1.23
2019-01-12T22:21:36.967Z,1.33
2019-01-12T22:24:25.316Z,1.50
2019-01-12T22:27:14.663Z,1.40
2019-01-12T22:30:02.744Z,1.20
2019-01-12T22:32:50.633Z,1.10
2019-01-12T22:35:38.912Z,1.17
2019-01-12T22:38:27.134Z,1.03
2019-01-12T22:41:15.356Z,1.10
2019-01-12T22:44:03.355Z,1.10
2019-01-12T22:46:51.596Z,1.27
2019-01-12T22:49:39.820Z,1.00
2019-01-12T22:52:28.014Z,1.10
2019-01-12T22:55:16.090Z,1.00
2019-01-12T22:58:04.033Z,1.13
2019-01-12T23:01:33.907Z,1.00
2019-01-12T23:04:23.591Z,1.00
2019-01-12T23:07:11.850Z,1.00
2019-01-12T23:10:00.044Z,1.20
2019-01-12T23:12:48.217Z,0.90
2019-01-12T23:15:36.323Z,1.20
2019-01-12T23:18:24.413Z,1.10
2019-01-12T23:21:12.332Z,1.03
2019-01-12T23:24:00.131Z,1.20
2019-01-12T23:26:48.245Z,1.00
2019-01-12T23:29:36.171Z,1.20
2019-01-12T23:32:24.099Z,1.20
2019-01-12T23:35:12.254Z,1.00
2019-01-12T23:38:00.537Z,1.00
2019-01-12T23:40:48.169Z,1.30
2019-01-12T23:43:36.302Z,1.10
2019-01-12T23:46:24.459Z,1.20
2019-01-12T23:49:13.180Z,1.00
2019-01-12T23:52:01.247Z,0.93
2019-01-12T23:54:53.033Z,1.30
2019-01-12T23:57:41.220Z,1.50
